Time;durP1;ratioP1;P1;durP2;ratioP2;P2;SDS_P1;SDS_P2;PMS_P1;PMS_P2;Temp;Humidity;BMP_temperature;BMP_pressure;BME280_temperature;BME280_humidity;BME280_pressure;Samples;Min_cycle;Max_cycle;Signal;HPM_P1;HPM_P2
2021/12/31 00:00:16;;;;;;;;;;;;;;;;;;5078150;28;20235;-80
2021/12/31 00:02:41;;;;;;;;;;;;;;;;;;5053110;28;19920;-80
2021/12/31 00:05:10;;;;;;;;;;;;;;;;;;5057623;28;19958;-80
2021/12/31 00:07:35;;;;;;;;;;;;;;;;;;5063106;28;20461;-80
2021/12/31 00:10:01;;;;;;;;;;;;;;;;;;5059002;28;19943;-80
2021/12/31 00:12:30;;;;;;;;;;;;;;;;;;5052643;28;19983;-81
2021/12/31 00:14:56;;;;;;;;;;;;;;;;;;5054520;28;20019;-80
2021/12/31 00:17:21;;;;;;;;;;;;;;;;;;5057239;28;19948;-80
2021/12/31 00:19:58;;;;;;;;;;;;;;;;;;5052925;28;19913;-80
2021/12/31 00:25:08;;;;;;;;;;;;;;;;;;5061931;28;19922;-81
2021/12/31 00:27:33;;;;;;;;;;;;;;;;;;5082448;28;19948;-80
2021/12/31 00:29:58;;;;;;;;;;;;;;;;;;5080334;28;19932;-80
2021/12/31 00:32:24;;;;;;;;;;;;;;;;;;5062337;28;19912;-80
2021/12/31 00:34:49;;;;;;;;;;;;;;;;;;5054748;28;20010;-80
2021/12/31 00:37:24;;;;;;;;;;;;;;;;;;5056137;28;19920;-78
2021/12/31 00:39:50;;;;;;;;;;;;;;;;;;5077704;28;19912;-80
2021/12/31 00:42:15;;;;;;;;;;;;;;;;;;5055894;28;19967;-80
2021/12/31 00:44:40;;;;;;;;;;;;;;;;;;5055064;28;19912;-80
2021/12/31 00:47:06;;;;;;;;;;;;;;;;;;5052472;28;20009;-80
2021/12/31 00:49:33;;;;;;;;;;;;;;;;;;5058545;28;20291;-80
2021/12/31 00:51:58;;;;;;;;;;;;;;;;;;5063254;28;19928;-80
2021/12/31 00:54:24;;;;;;;;;;;;;;;;;;5056605;28;20320;-79
2021/12/31 00:56:49;;;;;;;;;;;;;;;;;;5086531;28;19912;-80
2021/12/31 00:59:14;;;;;;;;;;;;;;;;;;5058565;28;20034;-80
2021/12/31 01:01:40;;;;;;;;;;;;;;;;;;5057036;28;19995;-81
2021/12/31 01:04:05;;;;;;;;;;;;;;;;;;5055235;28;19912;-80
2021/12/31 01:06:33;;;;;;;;;;;;;;;;;;5061862;28;19923;-80
2021/12/31 01:08:59;;;;;;;;;;;;;;;;;;5060127;28;19972;-80
2021/12/31 01:11:24;;;;;;;;;;;;;;;;;;5060720;28;19948;-80
2021/12/31 01:14:01;;;;;;;;;;;;;;;;;;5060355;28;19920;-79
2021/12/31 01:16:37;;;;;;;;;;;;;;;;;;5079617;28;19913;-80
2021/12/31 01:21:28;;;;;;;;;;;;;;;;;;5059776;28;20099;-79
2021/12/31 01:23:57;;;;;;;;;;;;;;;;;;5060833;28;19923;-80
2021/12/31 01:26:23;;;;;;;;;;;;;;;;;;5056959;28;19920;-80
2021/12/31 01:28:48;;;;;;;;;;;;;;;;;;5057952;28;19916;-80
2021/12/31 01:31:13;;;;;;;;;;;;;;;;;;5058486;28;19943;-80
2021/12/31 01:33:38;;;;;;;;;;;;;;;;;;5058529;28;19963;-79
2021/12/31 01:36:05;;;;;;;;;;;;;;;;;;5058290;28;19923;-80
2021/12/31 01:38:30;;;;;;;;;;;;;;;;;;5083656;28;22140;-79
2021/12/31 01:40:56;;;;;;;;;;;;;;;;;;5061542;28;20094;-79
2021/12/31 01:43:21;;;;;;;;;;;;;;;;;;5059460;28;19922;-80
2021/12/31 01:45:54;;;;;;;;;;;;;;;;;;5056514;28;19920;-81
2021/12/31 01:48:34;;;;;;;;;;;;;;;;;;5061329;28;19959;-80
2021/12/31 01:50:59;;;;;;;;;;;;;;;;;;5080446;28;19912;-80
2021/12/31 01:53:26;;;;;;;;;;;;;;;;;;5054619;28;19919;-80
2021/12/31 01:55:55;;;;;;;;;;;;;;;;;;5060031;28;19912;-79
2021/12/31 01:58:22;;;;;;;;;;;;;;;;;;5086153;28;19919;-80
2021/12/31 02:00:47;;;;;;;;;;;;;;;;;;5054537;28;19916;-80
2021/12/31 02:03:13;;;;;;;;;;;;;;;;;;5058602;28;20008;-79
2021/12/31 02:05:38;;;;;;;;;;;;;;;;;;5089009;28;19921;-79
2021/12/31 02:08:04;;;;;;;;;;;;;;;;;;5060627;28;20168;-79
2021/12/31 02:10:29;;;;;;;;;;;;;;;;;;5058256;28;19913;-80
2021/12/31 02:12:58;;;;;;;;;;;;;;;;;;5060302;28;19917;-79
2021/12/31 02:15:26;;;;;;;;;;;;;;;;;;5062249;28;19913;-80
2021/12/31 02:17:51;;;;;;;;;;;;;;;;;;5064848;28;19943;-80
2021/12/31 02:20:21;;;;;;;;;;;;;;;;;;5067942;28;19913;-79
2021/12/31 02:22:55;;;;;;;;;;;;;;;;;;5066039;28;20017;-78
2021/12/31 02:25:23;;;;;;;;;;;;;;;;;;5054020;28;19912;-77
2021/12/31 02:27:49;;;;;;;;;;;;;;;;;;5054443;28;19948;-77
2021/12/31 02:30:15;;;;;;;;;;;;;;;;;;5060568;28;20341;-79
2021/12/31 02:32:40;;;;;;;;;;;;;;;;;;5053412;28;19919;-81
2021/12/31 02:35:07;;;;;;;;;;;;;;;;;;5054672;28;19959;-77
2021/12/31 02:37:32;;;;;;;;;;;;;;;;;;5060376;28;19918;-79
2021/12/31 02:39:58;;;;;;;;;;;;;;;;;;5077745;28;20023;-78
2021/12/31 02:42:23;;;;;;;;;;;;;;;;;;5051148;28;20280;-79
2021/12/31 02:44:50;;;;;;;;;;;;;;;;;;5057272;28;19929;-77
2021/12/31 02:47:16;;;;;;;;;;;;;;;;;;5058679;28;19919;-79
2021/12/31 02:49:42;;;;;;;;;;;;;;;;;;5050823;28;19916;-77
2021/12/31 02:52:12;;;;;;;;;;;;;;;;;;5051096;28;20035;-78
2021/12/31 02:54:39;;;;;;;;;;;;;;;;;;5060951;28;19978;-77
2021/12/31 02:57:05;;;;;;;;;;;;;;;;;;5054412;28;19966;-77
2021/12/31 02:59:31;;;;;;;;;;;;;;;;;;5053370;28;19921;-78
2021/12/31 03:01:57;;;;;;;;;;;;;;;;;;5082168;28;20349;-77
2021/12/31 03:04:23;;;;;;;;;;;;;;;;;;5052698;28;19920;-79
2021/12/31 03:06:49;;;;;;;;;;;;;;;;;;5054763;28;20001;-80
2021/12/31 03:09:16;;;;;;;;;;;;;;;;;;5056251;28;19916;-78
2021/12/31 03:11:42;;;;;;;;;;;;;;;;;;5056701;28;19916;-76
2021/12/31 03:14:08;;;;;;;;;;;;;;;;;;5053019;28;19913;-77
2021/12/31 03:16:33;;;;;;;;;;;;;;;;;;5050652;28;20394;-77
2021/12/31 03:18:58;;;;;;;;;;;;;;;;;;5049118;28;19913;-77
2021/12/31 03:21:24;;;;;;;;;;;;;;;;;;5051552;28;19916;-77
2021/12/31 03:23:50;;;;;;;;;;;;;;;;;;5072372;28;19916;-78
2021/12/31 03:26:15;;;;;;;;;;;;;;;;;;5048713;28;19912;-78
2021/12/31 03:28:41;;;;;;;;;;;;;;;;;;5051546;28;19927;-78
2021/12/31 03:31:06;;;;;;;;;;;;;;;;;;5047834;28;20383;-78
2021/12/31 03:33:31;;;;;;;;;;;;;;;;;;5046404;28;20278;-79
2021/12/31 03:35:57;;;;;;;;;;;;;;;;;;5054520;28;20377;-78
2021/12/31 03:38:22;;;;;;;;;;;;;;;;;;5078132;28;19912;-78
2021/12/31 03:40:47;;;;;;;;;;;;;;;;;;5056340;28;19972;-79
2021/12/31 03:43:15;;;;;;;;;;;;;;;;;;5059085;28;19991;-79
2021/12/31 03:45:41;;;;;;;;;;;;;;;;;;5059058;28;20400;-77
2021/12/31 03:48:06;;;;;;;;;;;;;;;;;;5048220;28;19924;-78
2021/12/31 03:50:32;;;;;;;;;;;;;;;;;;5053997;28;20330;-77
2021/12/31 03:52:57;;;;;;;;;;;;;;;;;;5057746;28;20590;-77
2021/12/31 03:55:24;;;;;;;;;;;;;;;;;;5053411;28;19920;-78
2021/12/31 03:57:50;;;;;;;;;;;;;;;;;;5053032;28;20032;-78
2021/12/31 04:00:16;;;;;;;;;;;;;;;;;;5052791;28;19982;-76
2021/12/31 04:02:41;;;;;;;;;;;;;;;;;;5080088;28;19916;-77
2021/12/31 04:05:09;;;;;;;;;;;;;;;;;;5049279;28;19913;-79
2021/12/31 04:07:36;;;;;;;;;;;;;;;;;;5054955;28;19916;-76
2021/12/31 04:10:04;;;;;;;;;;;;;;;;;;5052198;28;19917;-79
2021/12/31 04:12:30;;;;;;;;;;;;;;;;;;5055922;28;19912;-79
2021/12/31 04:14:55;;;;;;;;;;;;;;;;;;5051919;28;19928;-79
2021/12/31 04:17:20;;;;;;;;;;;;;;;;;;5080553;28;20012;-78
2021/12/31 04:19:51;;;;;;;;;;;;;;;;;;5053433;28;20062;-79
2021/12/31 04:22:21;;;;;;;;;;;;;;;;;;5049012;28;19912;-79
2021/12/31 04:27:11;;;;;;;;;;;;;;;;;;5061216;28;19913;-78
2021/12/31 04:29:37;;;;;;;;;;;;;;;;;;5054216;28;19917;-77
2021/12/31 04:32:03;;;;;;;;;;;;;;;;;;5051399;28;19916;-78
2021/12/31 04:34:28;;;;;;;;;;;;;;;;;;5055547;28;19995;-78
2021/12/31 04:36:53;;;;;;;;;;;;;;;;;;5051607;28;19960;-79
2021/12/31 04:39:21;;;;;;;;;;;;;;;;;;5050317;28;20306;-79
2021/12/31 04:41:47;;;;;;;;;;;;;;;;;;5052063;28;20305;-79
2021/12/31 04:44:12;;;;;;;;;;;;;;;;;;5048511;28;19940;-79
2021/12/31 04:46:40;;;;;;;;;;;;;;;;;;5051281;28;19912;-80
2021/12/31 04:49:08;;;;;;;;;;;;;;;;;;5051516;28;19917;-80
2021/12/31 04:51:34;;;;;;;;;;;;;;;;;;5051669;28;19938;-79
2021/12/31 04:54:01;;;;;;;;;;;;;;;;;;5047617;28;20522;-79
2021/12/31 04:56:27;;;;;;;;;;;;;;;;;;5054230;28;19912;-80
2021/12/31 04:58:52;;;;;;;;;;;;;;;;;;5062599;28;19924;-80
2021/12/31 05:01:21;;;;;;;;;;;;;;;;;;5062253;28;20384;-79
2021/12/31 05:03:47;;;;;;;;;;;;;;;;;;5060539;28;19966;-79
2021/12/31 05:06:12;;;;;;;;;;;;;;;;;;5066011;28;19912;-80
2021/12/31 05:08:40;;;;;;;;;;;;;;;;;;5085532;28;19980;-80
2021/12/31 05:11:05;;;;;;;;;;;;;;;;;;5057208;28;19913;-79
2021/12/31 05:13:30;;;;;;;;;;;;;;;;;;5060736;28;19921;-79
2021/12/31 05:16:01;;;;;;;;;;;;;;;;;;5063061;28;19936;-79
2021/12/31 05:18:26;;;;;;;;;;;;;;;;;;5057667;28;19976;-80
2021/12/31 05:20:52;;;;;;;;;;;;;;;;;;5061962;28;19973;-79
2021/12/31 05:23:17;;;;;;;;;;;;;;;;;;5062042;28;20104;-80
2021/12/31 05:25:42;;;;;;;;;;;;;;;;;;5059134;28;19917;-80
2021/12/31 05:28:08;;;;;;;;;;;;;;;;;;5058954;28;19943;-79
2021/12/31 05:30:35;;;;;;;;;;;;;;;;;;5065682;28;19970;-80
2021/12/31 05:33:01;;;;;;;;;;;;;;;;;;5059926;28;20008;-79
2021/12/31 05:35:26;;;;;;;;;;;;;;;;;;5060235;28;19992;-79
2021/12/31 05:37:52;;;;;;;;;;;;;;;;;;5066657;28;19970;-80
2021/12/31 05:40:18;;;;;;;;;;;;;;;;;;5060637;28;19913;-79
2021/12/31 05:42:43;;;;;;;;;;;;;;;;;;5090386;28;19932;-79
2021/12/31 05:45:09;;;;;;;;;;;;;;;;;;5060171;28;19921;-79
2021/12/31 05:47:35;;;;;;;;;;;;;;;;;;5088658;28;20293;-79
2021/12/31 05:50:04;;;;;;;;;;;;;;;;;;5059127;28;19998;-79
2021/12/31 05:52:29;;;;;;;;;;;;;;;;;;5063194;28;19912;-79
2021/12/31 05:54:54;;;;;;;;;;;;;;;;;;5065051;28;20238;-79
2021/12/31 05:57:20;;;;;;;;;;;;;;;;;;5059330;28;20016;-79
2021/12/31 05:59:47;;;;;;;;;;;;;;;;;;5063767;28;19978;-79
2021/12/31 06:02:12;;;;;;;;;;;;;;;;;;5062961;28;20340;-79
2021/12/31 06:04:38;;;;;;;;;;;;;;;;;;5060780;28;19919;-79
2021/12/31 06:07:03;;;;;;;;;;;;;;;;;;5060715;28;19923;-79
2021/12/31 06:09:30;;;;;;;;;;;;;;;;;;5060611;28;19978;-79
2021/12/31 06:11:55;;;;;;;;;;;;;;;;;;5049479;28;19954;-79
2021/12/31 06:14:21;;;;;;;;;;;;;;;;;;5076700;28;20360;-78
2021/12/31 06:16:46;;;;;;;;;;;;;;;;;;5051653;28;20361;-80
2021/12/31 06:19:12;;;;;;;;;;;;;;;;;;5051034;28;19917;-80
2021/12/31 06:21:39;;;;;;;;;;;;;;;;;;5051335;28;19912;-79
2021/12/31 06:24:04;;;;;;;;;;;;;;;;;;5075704;28;19920;-78
2021/12/31 06:26:32;;;;;;;;;;;;;;;;;;5053150;28;19993;-79
2021/12/31 06:29:00;;;;;;;;;;;;;;;;;;5050541;28;19928;-79
2021/12/31 06:31:25;;;;;;;;;;;;;;;;;;5072993;28;20445;-79
2021/12/31 06:33:51;;;;;;;;;;;;;;;;;;5048497;28;19912;-78
2021/12/31 06:36:16;;;;;;;;;;;;;;;;;;5046312;28;20045;-78
2021/12/31 06:38:44;;;;;;;;;;;;;;;;;;5051320;28;19958;-79
2021/12/31 06:41:10;;;;;;;;;;;;;;;;;;5051870;28;20265;-78
2021/12/31 06:43:35;;;;;;;;;;;;;;;;;;5050486;28;19919;-80
2021/12/31 06:46:00;;;;;;;;;;;;;;;;;;5052313;28;19957;-79
2021/12/31 06:48:26;;;;;;;;;;;;;;;;;;5053889;28;19916;-80
2021/12/31 06:50:53;;;;;;;;;;;;;;;;;;5050292;28;19999;-78
2021/12/31 06:53:19;;;;;;;;;;;;;;;;;;5047294;28;19921;-80
2021/12/31 06:55:44;;;;;;;;;;;;;;;;;;5047943;28;19913;-80
2021/12/31 06:58:09;;;;;;;;;;;;;;;;;;5053339;28;20273;-79
2021/12/31 07:00:35;;;;;;;;;;;;;;;;;;5054598;28;20048;-80
2021/12/31 07:03:21;;;;;;;;;;;;;;;;;;5046677;28;20292;-80
2021/12/31 07:05:46;;;;;;;;;;;;;;;;;;5049531;28;19913;-79
2021/12/31 07:08:14;;;;;;;;;;;;;;;;;;5054891;28;20019;-79
2021/12/31 07:10:41;;;;;;;;;;;;;;;;;;5063589;28;19992;-79
2021/12/31 07:13:13;;;;;;;;;;;;;;;;;;5062523;28;19924;-79
2021/12/31 07:15:44;;;;;;;;;;;;;;;;;;5051800;28;19931;-79
2021/12/31 07:18:12;;;;;;;;;;;;;;;;;;5042409;28;19967;-79
2021/12/31 07:20:39;;;;;;;;;;;;;;;;;;5044830;28;19912;-79
2021/12/31 07:23:08;;;;;;;;;;;;;;;;;;5048351;28;20328;-78
2021/12/31 07:25:34;;;;;;;;;;;;;;;;;;5046357;28;19921;-79
2021/12/31 07:27:59;;;;;;;;;;;;;;;;;;5044591;28;20253;-78
2021/12/31 07:30:27;;;;;;;;;;;;;;;;;;5047370;28;19928;-79
2021/12/31 07:32:52;;;;;;;;;;;;;;;;;;5045348;28;19912;-79
2021/12/31 07:35:18;;;;;;;;;;;;;;;;;;5042977;28;19927;-79
2021/12/31 07:37:43;;;;;;;;;;;;;;;;;;5044027;28;19913;-79
2021/12/31 07:40:11;;;;;;;;;;;;;;;;;;5050059;28;20419;-78
2021/12/31 07:42:36;;;;;;;;;;;;;;;;;;5042157;28;19916;-79
2021/12/31 07:45:02;;;;;;;;;;;;;;;;;;5043407;28;20417;-78
2021/12/31 07:47:33;;;;;;;;;;;;;;;;;;5073010;28;19912;-80
2021/12/31 07:49:58;;;;;;;;;;;;;;;;;;5062845;28;19924;-79
2021/12/31 07:52:26;;;;;;;;;;;;;;;;;;5048222;28;19928;-80
2021/12/31 07:54:51;;;;;;;;;;;;;;;;;;5047242;28;20015;-80
2021/12/31 07:57:16;;;;;;;;;;;;;;;;;;5049857;28;20011;-79
2021/12/31 07:59:42;;;;;;;;;;;;;;;;;;5048578;28;19927;-79
2021/12/31 08:02:07;;;;;;;;;;;;;;;;;;5050406;28;19932;-79
2021/12/31 08:04:35;;;;;;;;;;;;;;;;;;5083925;28;19916;-78
2021/12/31 08:07:00;;;;;;;;;;;;;;;;;;5051848;28;19963;-79
2021/12/31 08:09:26;;;;;;;;;;;;;;;;;;5054297;28;19917;-78
2021/12/31 08:11:53;;;;;;;;;;;;;;;;;;5058122;28;19917;-79
2021/12/31 08:14:19;;;;;;;;;;;;;;;;;;5054920;28;20371;-79
2021/12/31 08:16:44;;;;;;;;;;;;;;;;;;5050021;28;19924;-78
2021/12/31 08:19:09;;;;;;;;;;;;;;;;;;5053239;28;19921;-77
2021/12/31 08:21:35;;;;;;;;;;;;;;;;;;5049163;28;19912;-77
2021/12/31 08:24:00;;;;;;;;;;;;;;;;;;5048372;28;20404;-79
2021/12/31 08:26:25;;;;;;;;;;;;;;;;;;5049723;28;19973;-78
2021/12/31 08:28:51;;;;;;;;;;;;;;;;;;5052983;28;19917;-78
2021/12/31 08:31:16;;;;;;;;;;;;;;;;;;5052665;28;19944;-78
2021/12/31 08:33:41;;;;;;;;;;;;;;;;;;5047913;28;19921;-78
2021/12/31 08:36:07;;;;;;;;;;;;;;;;;;5053057;28;19913;-78
2021/12/31 08:38:35;;;;;;;;;;;;;;;;;;5045923;28;19924;-79
2021/12/31 08:41:01;;;;;;;;;;;;;;;;;;5050910;28;20047;-79
2021/12/31 08:43:27;;;;;;;;;;;;;;;;;;5053829;28;19924;-79
2021/12/31 08:45:52;;;;;;;;;;;;;;;;;;5049454;28;19986;-78
2021/12/31 08:48:18;;;;;;;;;;;;;;;;;;5049545;28;19917;-79
2021/12/31 08:50:43;;;;;;;;;;;;;;;;;;5052610;28;19996;-78
2021/12/31 08:53:08;;;;;;;;;;;;;;;;;;5052632;28;19913;-78
2021/12/31 08:55:36;;;;;;;;;;;;;;;;;;5047155;28;19963;-78
2021/12/31 08:58:02;;;;;;;;;;;;;;;;;;5046465;28;19913;-78
2021/12/31 09:00:27;;;;;;;;;;;;;;;;;;5055350;28;19919;-78
2021/12/31 09:02:53;;;;;;;;;;;;;;;;;;5049956;28;19912;-78
2021/12/31 09:05:18;;;;;;;;;;;;;;;;;;5071893;28;20019;-77
2021/12/31 09:07:43;;;;;;;;;;;;;;;;;;5048242;28;19920;-78
2021/12/31 09:10:09;;;;;;;;;;;;;;;;;;5044689;28;20445;-78
2021/12/31 09:12:35;;;;;;;;;;;;;;;;;;5056006;28;19916;-79
2021/12/31 09:15:01;;;;;;;;;;;;;;;;;;5048612;28;19917;-77
2021/12/31 09:17:26;;;;;;;;;;;;;;;;;;5052597;28;20268;-78
2021/12/31 09:19:51;;;;;;;;;;;;;;;;;;5047663;28;20007;-77
2021/12/31 09:22:17;;;;;;;;;;;;;;;;;;5048588;28;19920;-76
2021/12/31 09:24:46;;;;;;;;;;;;;;;;;;5052101;28;19921;-76
2021/12/31 09:27:11;;;;;;;;;;;;;;;;;;5048886;28;19916;-77
2021/12/31 09:29:36;;;;;;;;;;;;;;;;;;5049421;28;19923;-77
2021/12/31 09:32:02;;;;;;;;;;;;;;;;;;5048548;28;20365;-77
2021/12/31 09:34:27;;;;;;;;;;;;;;;;;;5049364;28;20014;-77
2021/12/31 09:36:54;;;;;;;;;;;;;;;;;;5049953;28;19920;-77
2021/12/31 09:39:20;;;;;;;;;;;;;;;;;;5049021;28;20372;-79
2021/12/31 09:41:45;;;;;;;;;;;;;;;;;;5051794;28;19920;-78
2021/12/31 09:44:14;;;;;;;;;;;;;;;;;;5052660;28;20351;-78
2021/12/31 09:46:39;;;;;;;;;;;;;;;;;;5051756;28;19939;-77
2021/12/31 09:49:05;;;;;;;;;;;;;;;;;;5052150;28;20426;-78
2021/12/31 09:51:30;;;;;;;;;;;;;;;;;;5054837;28;19920;-78
2021/12/31 09:53:58;;;;;;;;;;;;;;;;;;5049033;28;20046;-80
2021/12/31 09:56:24;;;;;;;;;;;;;;;;;;5046268;28;19913;-78
2021/12/31 09:58:49;;;;;;;;;;;;;;;;;;5048924;28;19928;-77
2021/12/31 10:01:15;;;;;;;;;;;;;;;;;;5047292;28;19986;-76
2021/12/31 10:03:40;;;;;;;;;;;;;;;;;;5048563;28;20381;-78
2021/12/31 10:06:05;;;;;;;;;;;;;;;;;;5048769;28;19913;-79
2021/12/31 10:08:33;;;;;;;;;;;;;;;;;;5049020;28;19928;-77
2021/12/31 10:11:06;;;;;;;;;;;;;;;;;;5047000;28;20269;-78
2021/12/31 10:13:32;;;;;;;;;;;;;;;;;;5047615;28;20032;-78
2021/12/31 10:15:57;;;;;;;;;;;;;;;;;;5070641;28;20357;-77
2021/12/31 10:18:33;;;;;;;;;;;;;;;;;;5048659;28;19960;-78
2021/12/31 10:21:01;;;;;;;;;;;;;;;;;;5046553;28;19963;-76
2021/12/31 10:23:27;;;;;;;;;;;;;;;;;;5043494;28;19921;-77
2021/12/31 10:26:12;;;;;;;;;;;;;;;;;;5049536;28;19973;-78
2021/12/31 10:28:51;;;;;;;;;;;;;;;;;;5048874;28;19917;-78
2021/12/31 10:31:16;;;;;;;;;;;;;;;;;;5052139;28;20283;-78
2021/12/31 10:33:43;;;;;;;;;;;;;;;;;;5050468;28;19921;-77
2021/12/31 10:36:11;;;;;;;;;;;;;;;;;;5051699;28;19912;-78
2021/12/31 10:38:40;;;;;;;;;;;;;;;;;;5048361;28;19917;-79
2021/12/31 10:41:05;;;;;;;;;;;;;;;;;;5049940;28;20265;-78
2021/12/31 10:43:31;;;;;;;;;;;;;;;;;;5052587;28;19968;-77
2021/12/31 10:45:57;;;;;;;;;;;;;;;;;;5050366;28;19916;-77
2021/12/31 10:48:36;;;;;;;;;;;;;;;;;;5048259;28;19970;-78
2021/12/31 10:51:01;;;;;;;;;;;;;;;;;;5078592;22;19921;-62
2021/12/31 10:53:33;;;;;;;;;;;;;;;;;;5032372;28;19916;-62
2021/12/31 10:56:08;;;;;;;;;;;;;;;;;;5032498;28;19943;-62
2021/12/31 10:58:34;;;;;;;;;;;;;;;;;;5030172;28;19956;-62
2021/12/31 11:01:01;;;;;;;;;;;;;;;;;;5029007;28;19963;-62
2021/12/31 11:03:26;;;;;;;;;;;;;;;;;;5029744;28;19974;-62
2021/12/31 11:05:53;;;;;;;;;;;;;;;;;;5030338;28;19920;-62
2021/12/31 11:08:18;;;;;;;;;;;;;;;;;;5030901;28;20402;-62
2021/12/31 11:10:44;;;;;;;;;;;;;;;;;;5036095;28;20010;-62
2021/12/31 11:13:14;;;;;;;;;;;;;;;;;;5028358;28;19913;-62
2021/12/31 11:15:43;;;;;;;;;;;;;;;;;;5027385;28;19967;-62
2021/12/31 11:18:08;;;;;;;;;;;;;;;;;;5029078;28;19960;-62
2021/12/31 11:20:34;;;;;;;;;;;;;;;;;;5031024;28;19983;-62
2021/12/31 11:23:00;;;;;;;;;;;;;;;;;;5031135;28;20291;-62
2021/12/31 11:25:25;;;;;;;;;;;;;;;;;;5032172;28;19912;-63
2021/12/31 11:27:52;;;;;;;;;;;;;;;;;;5031579;28;19913;-63
2021/12/31 11:30:37;;;;;;;;;;;;;;;;;;5031379;28;19924;-63
2021/12/31 11:33:14;;;;;;;;;;;;;;;;;;5028817;28;19986;-63
2021/12/31 11:35:58;;;;;;;;;;;;;;;;;;5028345;28;19913;-63
2021/12/31 11:38:24;;;;;;;;;;;;;;;;;;5035973;28;19913;-63
2021/12/31 11:41:09;;;;;;;;;;;;;;;;;;5029453;28;19920;-63
2021/12/31 11:43:41;;;;;;;;;;;;;;;;;;5026884;28;19999;-63
2021/12/31 11:46:10;;;;;;;;;;;;;;;;;;5028038;28;20328;-63
2021/12/31 11:51:13;;;;;;;;;;;;;;;;;;5029951;28;20000;-63
2021/12/31 11:54:00;;;;;;;;;;;;;;;;;;5029995;28;19913;-63
2021/12/31 11:56:34;;;;;;;;;;;;;;;;;;5027666;28;20382;-63
2021/12/31 11:59:09;;;;;;;;;;;;;;;;;;5028160;28;19939;-63
2021/12/31 12:01:34;;;;;;;;;;;;;;;;;;5029410;28;19936;-63
2021/12/31 12:04:19;;;;;;;;;;;;;;;;;;5026901;28;20450;-63
2021/12/31 12:06:50;;;;;;;;;;;;;;;;;;5027711;28;19924;-63
2021/12/31 12:09:15;;;;;;;;;;;;;;;;;;5032340;28;20405;-63
2021/12/31 12:11:59;;;;;;;;;;;;;;;;;;5029926;28;19975;-63
2021/12/31 12:14:36;;;;;;;;;;;;;;;;;;5027466;28;19928;-65
2021/12/31 12:17:02;;;;;;;;;;;;;;;;;;5026234;28;19978;-65
2021/12/31 12:19:46;;;;;;;;;;;;;;;;;;5029167;28;19921;-66
2021/12/31 12:22:27;;;;;;;;;;;;;;;;;;5045612;28;19982;-66
2021/12/31 12:24:54;;;;;;;;;;;;;;;;;;5028574;28;19916;-66
2021/12/31 12:27:22;;;;;;;;;;;;;;;;;;5029349;28;19921;-66
2021/12/31 12:29:48;;;;;;;;;;;;;;;;;;5028650;28;20402;-67
2021/12/31 12:32:15;;;;;;;;;;;;;;;;;;5029444;28;19913;-66
2021/12/31 12:34:40;;;;;;;;;;;;;;;;;;5027349;28;20004;-70
2021/12/31 12:37:06;;;;;;;;;;;;;;;;;;5028333;28;20024;-66
2021/12/31 12:39:31;;;;;;;;;;;;;;;;;;5029552;28;19913;-66
2021/12/31 12:41:56;;;;;;;;;;;;;;;;;;5027795;28;20008;-66
2021/12/31 12:44:22;;;;;;;;;;;;;;;;;;5028368;28;19917;-66
2021/12/31 12:46:54;;;;;;;;;;;;;;;;;;5031946;28;20349;-66
2021/12/31 12:49:20;;;;;;;;;;;;;;;;;;5033979;28;19921;-65
2021/12/31 12:51:46;;;;;;;;;;;;;;;;;;5031822;28;19913;-65
2021/12/31 12:54:17;;;;;;;;;;;;;;;;;;5030078;28;19921;-65
2021/12/31 12:56:42;;;;;;;;;;;;;;;;;;5031614;28;19920;-65
2021/12/31 12:59:09;;;;;;;;;;;;;;;;;;5032487;28;19992;-66
2021/12/31 13:01:39;;;;;;;;;;;;;;;;;;5031712;28;19944;-66
2021/12/31 13:04:06;;;;;;;;;;;;;;;;;;5031348;28;19916;-66
2021/12/31 13:06:31;;;;;;;;;;;;;;;;;;5032122;28;20375;-66
2021/12/31 13:09:07;;;;;;;;;;;;;;;;;;5032317;28;19967;-66
2021/12/31 13:11:33;;;;;;;;;;;;;;;;;;5031941;28;20117;-66
2021/12/31 13:13:58;;;;;;;;;;;;;;;;;;5030978;28;19923;-66
2021/12/31 13:16:23;;;;;;;;;;;;;;;;;;5032540;28;19913;-66
2021/12/31 13:18:56;;;;;;;;;;;;;;;;;;5032040;28;19967;-66
2021/12/31 13:21:21;;;;;;;;;;;;;;;;;;5033159;28;19916;-66
2021/12/31 13:23:54;;;;;;;;;;;;;;;;;;5031520;28;20365;-66
2021/12/31 13:26:21;;;;;;;;;;;;;;;;;;5032626;28;19921;-66
2021/12/31 13:28:47;;;;;;;;;;;;;;;;;;5032881;28;20023;-66
2021/12/31 13:31:12;;;;;;;;;;;;;;;;;;5031015;28;20455;-66
2021/12/31 13:33:41;;;;;;;;;;;;;;;;;;5031113;28;19916;-66
2021/12/31 13:36:12;;;;;;;;;;;;;;;;;;5032393;28;19971;-66
2021/12/31 13:38:56;;;;;;;;;;;;;;;;;;5031183;28;19913;-66
2021/12/31 13:41:21;;;;;;;;;;;;;;;;;;5031081;28;19913;-65
2021/12/31 13:43:57;;;;;;;;;;;;;;;;;;5030585;28;20318;-65
2021/12/31 13:46:33;;;;;;;;;;;;;;;;;;5032519;28;20351;-65
2021/12/31 13:49:03;;;;;;;;;;;;;;;;;;5032885;28;19917;-65
2021/12/31 13:51:30;;;;;;;;;;;;;;;;;;5032458;28;19967;-65
2021/12/31 13:53:55;;;;;;;;;;;;;;;;;;5032063;28;19975;-65
2021/12/31 13:56:33;;;;;;;;;;;;;;;;;;5060761;28;20331;-65
2021/12/31 13:58:58;;;;;;;;;;;;;;;;;;5029303;28;20399;-65
2021/12/31 14:01:23;;;;;;;;;;;;;;;;;;5031025;28;19960;-65
2021/12/31 14:04:07;;;;;;;;;;;;;;;;;;5030574;28;19913;-65
2021/12/31 14:06:33;;;;;;;;;;;;;;;;;;5030429;28;19963;-65
2021/12/31 14:08:58;;;;;;;;;;;;;;;;;;5031229;28;19957;-65
2021/12/31 14:11:24;;;;;;;;;;;;;;;;;;5032091;28;19983;-65
2021/12/31 14:13:49;;;;;;;;;;;;;;;;;;5029942;28;20446;-65
2021/12/31 14:16:14;;;;;;;;;;;;;;;;;;5031205;28;20009;-65
2021/12/31 14:18:40;;;;;;;;;;;;;;;;;;5032529;28;19912;-65
2021/12/31 14:21:05;;;;;;;;;;;;;;;;;;5038303;28;20003;-65
2021/12/31 14:23:30;;;;;;;;;;;;;;;;;;5031591;28;19909;-65
2021/12/31 14:25:56;;;;;;;;;;;;;;;;;;5031848;28;19920;-65
2021/12/31 14:28:21;;;;;;;;;;;;;;;;;;5030511;28;19909;-65
2021/12/31 14:30:46;;;;;;;;;;;;;;;;;;5030665;28;19912;-65
2021/12/31 14:33:13;;;;;;;;;;;;;;;;;;5030687;28;19920;-65
2021/12/31 14:35:42;;;;;;;;;;;;;;;;;;5030531;28;20413;-65
2021/12/31 14:38:15;;;;;;;;;;;;;;;;;;5030316;28;20394;-65
2021/12/31 14:40:46;;;;;;;;;;;;;;;;;;5030271;28;20441;-65
2021/12/31 14:43:12;;;;;;;;;;;;;;;;;;5030130;28;20368;-65
2021/12/31 14:45:37;;;;;;;;;;;;;;;;;;5030776;28;19919;-65
2021/12/31 14:48:04;;;;;;;;;;;;;;;;;;5062596;28;19920;-65
2021/12/31 14:50:29;;;;;;;;;;;;;;;;;;5030377;28;20411;-64
2021/12/31 14:52:55;;;;;;;;;;;;;;;;;;5029125;28;19963;-65
2021/12/31 14:55:22;;;;;;;;;;;;;;;;;;5030659;28;19956;-64
2021/12/31 14:57:47;;;;;;;;;;;;;;;;;;5030005;28;19920;-65
2021/12/31 15:00:14;;;;;;;;;;;;;;;;;;5029961;28;19917;-65
2021/12/31 15:02:40;;;;;;;;;;;;;;;;;;5028928;28;19999;-65
2021/12/31 15:05:06;;;;;;;;;;;;;;;;;;5031502;28;20300;-64
2021/12/31 15:07:32;;;;;;;;;;;;;;;;;;5029183;28;19921;-64
2021/12/31 15:09:57;;;;;;;;;;;;;;;;;;5033466;28;20001;-65
2021/12/31 15:12:23;;;;;;;;;;;;;;;;;;5028674;28;19936;-65
2021/12/31 15:14:48;;;;;;;;;;;;;;;;;;5029666;28;19939;-65
2021/12/31 15:17:14;;;;;;;;;;;;;;;;;;5029589;28;19909;-64
2021/12/31 15:19:43;;;;;;;;;;;;;;;;;;5031544;28;19917;-65
2021/12/31 15:22:09;;;;;;;;;;;;;;;;;;5028735;28;19913;-64
2021/12/31 15:24:35;;;;;;;;;;;;;;;;;;5029369;28;20007;-64
2021/12/31 15:27:02;;;;;;;;;;;;;;;;;;5028795;28;20007;-64
2021/12/31 15:29:28;;;;;;;;;;;;;;;;;;5029579;28;19913;-64
2021/12/31 15:31:53;;;;;;;;;;;;;;;;;;5031768;28;19935;-64
2021/12/31 15:34:18;;;;;;;;;;;;;;;;;;5034936;28;19917;-64
2021/12/31 15:36:44;;;;;;;;;;;;;;;;;;5029749;28;20261;-64
2021/12/31 15:39:10;;;;;;;;;;;;;;;;;;5029396;28;19909;-64
2021/12/31 15:41:50;;;;;;;;;;;;;;;;;;5030747;28;19983;-64
2021/12/31 15:44:16;;;;;;;;;;;;;;;;;;5028676;28;19916;-64
2021/12/31 15:46:42;;;;;;;;;;;;;;;;;;5029732;28;20291;-64
2021/12/31 15:49:09;;;;;;;;;;;;;;;;;;5029552;28;19913;-64
2021/12/31 15:51:37;;;;;;;;;;;;;;;;;;5029215;28;19920;-64
2021/12/31 15:54:04;;;;;;;;;;;;;;;;;;5028273;28;19917;-65
2021/12/31 15:56:29;;;;;;;;;;;;;;;;;;5030377;28;20007;-64
2021/12/31 15:58:54;;;;;;;;;;;;;;;;;;5029642;28;19967;-65
2021/12/31 16:01:20;;;;;;;;;;;;;;;;;;5029700;28;20003;-64
2021/12/31 16:03:45;;;;;;;;;;;;;;;;;;5043885;28;20387;-65
2021/12/31 16:06:11;;;;;;;;;;;;;;;;;;5031373;28;20035;-64
2021/12/31 16:08:36;;;;;;;;;;;;;;;;;;5028518;28;19916;-64
2021/12/31 16:11:02;;;;;;;;;;;;;;;;;;5027582;28;19917;-64
2021/12/31 16:13:28;;;;;;;;;;;;;;;;;;5030152;28;19912;-64
2021/12/31 16:15:54;;;;;;;;;;;;;;;;;;5029305;28;19967;-64
2021/12/31 16:18:19;;;;;;;;;;;;;;;;;;5029177;28;19921;-64
2021/12/31 16:20:44;;;;;;;;;;;;;;;;;;5031850;28;19913;-65
2021/12/31 16:23:09;;;;;;;;;;;;;;;;;;5033617;28;20291;-64
2021/12/31 16:25:35;;;;;;;;;;;;;;;;;;5033353;28;19909;-64
2021/12/31 16:28:00;;;;;;;;;;;;;;;;;;5031083;28;20016;-64
2021/12/31 16:30:26;;;;;;;;;;;;;;;;;;5032834;28;19929;-64
2021/12/31 16:32:51;;;;;;;;;;;;;;;;;;5034168;28;19967;-65
2021/12/31 16:35:16;;;;;;;;;;;;;;;;;;5032839;28;20292;-64
2021/12/31 16:37:42;;;;;;;;;;;;;;;;;;5033149;28;19917;-64
2021/12/31 16:40:12;;;;;;;;;;;;;;;;;;5032656;28;20350;-64
2021/12/31 16:42:38;;;;;;;;;;;;;;;;;;5031589;28;20115;-64
2021/12/31 16:45:04;;;;;;;;;;;;;;;;;;5037064;28;20462;-64
2021/12/31 16:47:30;;;;;;;;;;;;;;;;;;5032849;28;20244;-64
2021/12/31 16:49:56;;;;;;;;;;;;;;;;;;5037165;28;19924;-64
2021/12/31 16:52:21;;;;;;;;;;;;;;;;;;5033822;28;19913;-64
2021/12/31 16:54:46;;;;;;;;;;;;;;;;;;5033303;28;19936;-65